Time;durP1;ratioP1;P1;durP2;ratioP2;P2;SDS_P1;SDS_P2;PMS_P1;PMS_P2;Temp;Humidity;BMP_temperature;BMP_pressure;BME280_temperature;BME280_humidity;BME280_pressure;Samples;Min_cycle;Max_cycle;Signal;HPM_P1;HPM_P2
2021/07/05 00:01:22;;;;;;;;;1.00;1.00;;;;;-145.01;100.00;59511.53;3;117064059;130558779;-72
2021/07/05 00:08:11;;;;;;;;;2.00;2.00;;;;;-145.01;100.00;59511.53;3;130569378;139558799;-72
2021/07/05 00:14:19;;;;;;;;;;;;;;;-145.01;100.00;59511.53;3;121551556;138907694;-72
2021/07/05 00:16:44;;;;;;;;;4.00;2.00;;;;;-145.01;100.00;59511.53;4543370;27;13800472;-72
2021/07/05 00:19:10;;;;;;;;;2.00;1.00;;;;;-145.01;100.00;59511.53;5116916;27;45527;-72
2021/07/05 00:21:35;;;;;;;;;2.67;2.00;;;;;-145.01;100.00;59511.53;5116971;27;45283;-72
2021/07/05 00:24:01;;;;;;;;;2.00;2.00;;;;;-145.01;100.00;59511.53;5116079;27;45495;-73
2021/07/05 00:26:26;;;;;;;;;2.00;2.00;;;;;-145.01;100.00;59511.53;5116358;27;45348;-72
2021/07/05 00:28:52;;;;;;;;;1.33;1.33;;;;;-145.01;100.00;59511.53;5116417;27;45395;-72
2021/07/05 00:31:17;;;;;;;;;2.00;2.00;;;;;-145.01;100.00;59511.53;5116558;27;45242;-72
2021/07/05 00:33:43;;;;;;;;;3.33;2.67;;;;;-145.01;100.00;59511.53;5116865;27;45585;-72
2021/07/05 00:36:08;;;;;;;;;2.00;0.00;;;;;-145.01;100.00;59511.53;5116370;27;45520;-73
2021/07/05 00:38:33;;;;;;;;;3.33;3.00;;;;;-145.01;100.00;59511.53;5116686;27;45539;-72
2021/07/05 00:40:59;;;;;;;;;2.67;2.67;;;;;-145.01;100.00;59511.53;5115902;27;47147;-73
2021/07/05 00:43:24;;;;;;;;;2.67;2.67;;;;;-145.01;100.00;59511.53;5100194;27;45940;-73
2021/07/05 00:45:49;;;;;;;;;3.00;3.00;;;;;-145.01;100.00;59511.53;5117550;27;45388;-73
2021/07/05 00:48:15;;;;;;;;;3.33;3.00;;;;;-145.01;100.00;59511.53;5097378;27;45551;-73
2021/07/05 00:50:41;;;;;;;;;2.33;2.33;;;;;-145.01;100.00;59511.53;5116453;27;45352;-73
2021/07/05 00:53:06;;;;;;;;;2.00;2.00;;;;;-145.01;100.00;59511.53;5116519;27;45451;-73
2021/07/05 00:55:32;;;;;;;;;1.33;1.33;;;;;-145.01;100.00;59511.53;5116011;27;45477;-73
2021/07/05 00:57:58;;;;;;;;;3.00;3.00;;;;;-145.01;100.00;59511.53;5117005;27;45357;-73
2021/07/05 01:00:26;;;;;;;;;3.00;1.67;;;;;-145.01;100.00;59511.53;5116232;27;45599;-73
2021/07/05 01:02:52;;;;;;;;;3.00;3.00;;;;;-145.01;100.00;59511.53;5097395;27;46080;-73
2021/07/05 01:05:19;;;;;;;;;2.33;2.33;;;;;-145.01;100.00;59511.53;5116175;27;45531;-73
2021/07/05 01:07:45;;;;;;;;;2.00;2.00;;;;;-145.01;100.00;59511.53;5116467;27;45474;-73
2021/07/05 01:10:13;;;;;;;;;2.67;2.67;;;;;-145.01;100.00;59511.53;5115970;27;45327;-73
2021/07/05 01:12:38;;;;;;;;;3.00;2.67;;;;;-145.01;100.00;59511.53;5116579;27;45465;-73
2021/07/05 01:15:06;;;;;;;;;4.00;1.67;;;;;-145.01;100.00;59511.53;5116042;27;45321;-73
2021/07/05 01:17:32;;;;;;;;;1.33;1.33;;;;;-145.01;100.00;59511.53;5116139;27;45557;-74
2021/07/05 01:19:57;;;;;;;;;3.33;2.00;;;;;-145.01;100.00;59511.53;5115692;27;45549;-73
2021/07/05 01:22:22;;;;;;;;;3.00;1.00;;;;;-145.01;100.00;59511.53;5116091;27;46580;-73
2021/07/05 01:24:48;;;;;;;;;1.67;1.67;;;;;-145.01;100.00;59511.53;5116511;27;45344;-73
2021/07/05 01:27:15;;;;;;;;;6.00;4.00;;;;;-145.01;100.00;59511.53;5116052;27;45577;-73
2021/07/05 01:29:41;;;;;;;;;1.67;1.67;;;;;-145.01;100.00;59511.53;5116104;27;45337;-72
2021/07/05 01:32:08;;;;;;;;;2.00;2.00;;;;;-145.01;100.00;59511.53;5115940;27;45996;-73
2021/07/05 01:34:34;;;;;;;;;1.67;1.00;;;;;-145.01;100.00;59511.53;5115949;27;45280;-73
2021/07/05 01:36:59;;;;;;;;;2.33;2.33;;;;;-145.01;100.00;59511.53;5116155;27;46174;-73
2021/07/05 01:39:25;;;;;;;;;2.00;2.00;;;;;-145.01;100.00;59511.53;5115883;27;45517;-73
2021/07/05 01:41:51;;;;;;;;;3.67;3.67;;;;;-145.01;100.00;59511.53;5115603;27;47001;-72
2021/07/05 01:44:16;;;;;;;;;2.33;2.33;;;;;-145.01;100.00;59511.53;5115824;27;45427;-72
2021/07/05 01:46:42;;;;;;;;;2.00;2.00;;;;;-145.01;100.00;59511.53;5115192;27;45645;-74
2021/07/05 01:49:08;;;;;;;;;1.67;1.67;;;;;-145.01;100.00;59511.53;5097122;27;45502;-73
2021/07/05 01:51:34;;;;;;;;;3.00;2.00;;;;;-145.01;100.00;59511.53;5116009;27;47373;-73
2021/07/05 01:54:00;;;;;;;;;2.75;1.50;;;;;-145.01;100.00;59511.53;5116970;27;45515;-73
2021/07/05 01:56:25;;;;;;;;;2.33;2.33;;;;;-145.01;100.00;59511.53;5119179;27;45346;-73
2021/07/05 01:58:50;;;;;;;;;2.67;1.00;;;;;-145.01;100.00;59511.53;5113751;27;45521;-73
2021/07/05 02:01:17;;;;;;;;;4.00;3.00;;;;;-145.01;100.00;59511.53;5118887;27;45420;-74
2021/07/05 02:03:42;;;;;;;;;2.00;2.00;;;;;-145.01;100.00;59511.53;5119917;27;45450;-73
2021/07/05 02:06:08;;;;;;;;;2.67;2.67;;;;;-145.01;100.00;59511.53;5119011;27;45523;-73
2021/07/05 02:08:33;;;;;;;;;5.00;2.33;;;;;-145.01;100.00;59511.53;5118836;27;45512;-73
2021/07/05 02:10:59;;;;;;;;;2.33;2.33;;;;;-145.01;100.00;59511.53;5119282;27;46458;-73
2021/07/05 02:13:27;;;;;;;;;3.00;2.00;;;;;-145.01;100.00;59511.53;5119390;27;45383;-73
2021/07/05 02:15:55;;;;;;;;;2.33;2.33;;;;;-145.01;100.00;59511.53;5115457;27;45307;-73
2021/07/05 02:18:21;;;;;;;;;3.00;1.00;;;;;-145.01;100.00;59511.53;5118749;27;45563;-72
2021/07/05 02:20:47;;;;;;;;;2.67;2.67;;;;;-145.01;100.00;59511.53;5118551;27;45411;-73
2021/07/05 02:23:14;;;;;;;;;1.67;1.67;;;;;-145.01;100.00;59511.53;5118395;27;45414;-73
2021/07/05 02:25:41;;;;;;;;;3.00;2.00;;;;;-145.01;100.00;59511.53;5118868;27;45456;-72
2021/07/05 02:28:13;;;;;;;;;1.00;1.00;;;;;-145.01;100.00;59511.53;5118799;27;45268;-73
2021/07/05 02:30:40;;;;;;;;;1.00;1.00;;;;;-145.01;100.00;59511.53;5103469;27;45322;-73
2021/07/05 02:33:06;;;;;;;;;4.00;2.33;;;;;-145.01;100.00;59511.53;5116263;27;45418;-73
2021/07/05 02:35:34;;;;;;;;;2.00;2.00;;;;;-145.01;100.00;59511.53;5118423;27;45232;-73
2021/07/05 02:38:00;;;;;;;;;3.67;2.00;;;;;-145.01;100.00;59511.53;5118280;27;45611;-73
2021/07/05 02:40:29;;;;;;;;;2.00;2.00;;;;;-145.01;100.00;59511.53;5118376;27;47425;-73
2021/07/05 02:42:56;;;;;;;;;5.50;2.50;;;;;-145.01;100.00;59511.53;5114930;27;45477;-73
2021/07/05 02:45:24;;;;;;;;;2.50;1.75;;;;;-145.01;100.00;59511.53;5118824;27;45442;-73
2021/07/05 02:47:55;;;;;;;;;1.33;1.33;;;;;-145.01;100.00;59511.53;5117987;27;45302;-73
2021/07/05 02:50:20;;;;;;;;;1.00;1.00;;;;;-145.01;100.00;59511.53;5118182;27;46383;-73
2021/07/05 02:52:46;;;;;;;;;3.00;2.67;;;;;-145.01;100.00;59511.53;5117824;27;45435;-73
2021/07/05 02:55:13;;;;;;;;;2.00;1.00;;;;;-145.01;100.00;59511.53;5118518;27;45543;-73
2021/07/05 02:57:39;;;;;;;;;3.00;2.00;;;;;-145.01;100.00;59511.53;5118865;27;45317;-73
2021/07/05 03:00:12;;;;;;;;;3.00;2.00;;;;;-145.01;100.00;59511.53;5117721;27;45580;-73
2021/07/05 03:02:38;;;;;;;;;2.00;1.00;;;;;-145.01;100.00;59511.53;5118157;27;45491;-72
2021/07/05 03:05:07;;;;;;;;;2.00;2.00;;;;;-145.01;100.00;59511.53;5117679;27;45422;-73
2021/07/05 03:07:33;;;;;;;;;1.33;1.33;;;;;-145.01;100.00;59511.53;5117934;27;45254;-73
2021/07/05 03:09:58;;;;;;;;;3.00;2.00;;;;;-145.01;100.00;59511.53;5118175;27;46156;-73
2021/07/05 03:12:24;;;;;;;;;3.00;3.00;;;;;-145.01;100.00;59511.53;5117752;27;45295;-73
2021/07/05 03:14:49;;;;;;;;;1.67;1.67;;;;;-145.01;100.00;59511.53;5117319;27;45393;-73
2021/07/05 03:17:14;;;;;;;;;2.33;2.00;;;;;-145.01;100.00;59511.53;5117359;27;45544;-73
2021/07/05 03:19:40;;;;;;;;;4.67;3.00;;;;;-145.01;100.00;59511.53;5116848;27;45989;-73
2021/07/05 03:22:06;;;;;;;;;2.00;2.00;;;;;-145.01;100.00;59511.53;5117745;27;45312;-73
2021/07/05 03:24:32;;;;;;;;;2.75;2.00;;;;;-145.01;100.00;59511.53;5118215;27;45418;-73
2021/07/05 03:26:57;;;;;;;;;1.25;1.25;;;;;-145.01;100.00;59511.53;5116765;27;45522;-73
2021/07/05 03:29:23;;;;;;;;;3.33;1.67;;;;;-145.01;100.00;59511.53;5117306;27;46355;-73
2021/07/05 03:31:48;;;;;;;;;6.00;2.00;;;;;-145.01;100.00;59511.53;5117618;27;45543;-72
2021/07/05 03:34:15;;;;;;;;;3.00;2.00;;;;;-145.01;100.00;59511.53;5117491;27;45292;-73
2021/07/05 03:36:40;;;;;;;;;2.67;1.33;;;;;-145.01;100.00;59511.53;5118027;27;45422;-73
2021/07/05 03:39:05;;;;;;;;;3.67;2.00;;;;;-145.01;100.00;59511.53;5117030;27;46041;-73
2021/07/05 03:41:31;;;;;;;;;3.33;2.67;;;;;-145.01;100.00;59511.53;5116293;27;45441;-73
2021/07/05 03:43:57;;;;;;;;;2.00;2.00;;;;;-145.01;100.00;59511.53;5117292;27;45445;-72
2021/07/05 03:46:22;;;;;;;;;3.50;3.00;;;;;-145.01;100.00;59511.53;5116900;27;45559;-73
2021/07/05 03:48:47;;;;;;;;;2.33;1.33;;;;;-145.01;100.00;59511.53;5117402;27;45326;-72
2021/07/05 03:51:13;;;;;;;;;2.67;2.00;;;;;-145.01;100.00;59511.53;5117114;27;45476;-73
2021/07/05 03:53:38;;;;;;;;;4.00;3.00;;;;;-145.01;100.00;59511.53;5117175;27;45476;-73
2021/07/05 03:56:04;;;;;;;;;2.00;2.00;;;;;-145.01;100.00;59511.53;5117022;27;45379;-73
2021/07/05 03:58:30;;;;;;;;;2.67;2.67;;;;;-145.01;100.00;59511.53;5116812;27;46653;-73
2021/07/05 04:00:59;;;;;;;;;4.25;2.25;;;;;-145.01;100.00;59511.53;5117905;27;45390;-73
2021/07/05 04:03:24;;;;;;;;;4.00;3.00;;;;;-145.01;100.00;59511.53;5117520;27;45469;-73
2021/07/05 04:05:51;;;;;;;;;2.00;2.00;;;;;-145.01;100.00;59511.53;5117100;27;45350;-73
2021/07/05 04:08:16;;;;;;;;;4.00;4.00;;;;;-145.01;100.00;59511.53;5116650;27;46198;-72
2021/07/05 04:10:42;;;;;;;;;4.67;4.33;;;;;-145.01;100.00;59511.53;5116167;27;45457;-73
2021/07/05 04:13:10;;;;;;;;;2.33;2.33;;;;;-145.01;100.00;59511.53;5115927;27;45416;-73
2021/07/05 04:15:35;;;;;;;;;4.25;3.25;;;;;-145.01;100.00;59511.53;5116061;27;45457;-73
2021/07/05 04:18:01;;;;;;;;;3.50;3.50;;;;;-145.01;100.00;59511.53;5115357;27;45928;-73
2021/07/05 04:20:27;;;;;;;;;4.75;3.50;;;;;-145.01;100.00;59511.53;5116256;27;45615;-73
2021/07/05 04:22:53;;;;;;;;;4.00;3.75;;;;;-145.01;100.00;59511.53;5115613;27;45354;-74
2021/07/05 04:25:20;;;;;;;;;3.75;3.75;;;;;-145.01;100.00;59511.53;5116113;27;45732;-72
2021/07/05 04:27:46;;;;;;;;;4.75;4.00;;;;;-145.01;100.00;59511.53;5116433;27;46140;-72
2021/07/05 04:30:13;;;;;;;;;2.25;2.25;;;;;-145.01;100.00;59511.53;5115955;27;45288;-73
2021/07/05 04:32:39;;;;;;;;;3.00;3.00;;;;;-145.01;100.00;59511.53;5115659;27;45298;-73
2021/07/05 04:35:07;;;;;;;;;4.00;4.00;;;;;-145.01;100.00;59511.53;5115787;27;45386;-72
2021/07/05 04:37:33;;;;;;;;;4.00;4.00;;;;;-145.01;100.00;59511.53;5115587;27;45521;-72
2021/07/05 04:39:58;;;;;;;;;4.75;4.00;;;;;-145.01;100.00;59511.53;5115404;27;45409;-72
2021/07/05 04:42:23;;;;;;;;;6.00;4.00;;;;;-145.01;100.00;59511.53;5116118;27;45520;-72
2021/07/05 04:44:50;;;;;;;;;7.50;6.25;;;;;-145.01;100.00;59511.53;5115645;27;45472;-72
2021/07/05 04:47:16;;;;;;;;;3.00;3.00;;;;;-145.01;100.00;59511.53;5114927;27;46091;-72
2021/07/05 04:49:41;;;;;;;;;4.00;4.00;;;;;-145.01;100.00;59511.53;5115339;27;45505;-72
2021/07/05 04:52:07;;;;;;;;;2.00;2.00;;;;;-145.01;100.00;59511.53;5115933;27;45417;-72
2021/07/05 04:54:32;;;;;;;;;2.75;2.50;;;;;-145.01;100.00;59511.53;5116078;27;45465;-73
2021/07/05 04:56:58;;;;;;;;;3.50;3.50;;;;;-145.01;100.00;59511.53;5115057;27;46005;-74
2021/07/05 04:59:25;;;;;;;;;2.00;2.00;;;;;-145.01;100.00;59511.53;5115226;27;45453;-74
2021/07/05 05:01:50;;;;;;;;;2.00;2.00;;;;;-145.01;100.00;59511.53;5115216;27;45462;-73
2021/07/05 05:04:15;;;;;;;;;2.00;2.00;;;;;-145.01;100.00;59511.53;5115169;27;45295;-74
2021/07/05 05:06:42;;;;;;;;;3.33;3.00;;;;;-145.01;100.00;59511.53;5115726;27;47054;-73
2021/07/05 05:09:07;;;;;;;;;5.00;3.50;;;;;-145.01;100.00;59511.53;5114723;27;45359;-72
2021/07/05 05:11:33;;;;;;;;;5.00;5.00;;;;;-145.01;100.00;59511.53;5114419;27;45437;-72
2021/07/05 05:13:58;;;;;;;;;3.00;3.00;;;;;-145.01;100.00;59511.53;5114432;27;45424;-72
2021/07/05 05:16:23;;;;;;;;;1.67;1.67;;;;;-145.01;100.00;59511.53;5114063;27;45582;-72
2021/07/05 05:18:48;;;;;;;;;1.00;1.00;;;;;-145.01;100.00;59511.53;5091667;27;45436;-72
2021/07/05 05:21:14;;;;;;;;;0.00;0.00;;;;;-145.01;100.00;59511.53;5114328;27;45341;-73
2021/07/05 05:23:40;;;;;;;;;2.33;0.67;;;;;-145.01;100.00;59511.53;5115025;27;45538;-72
2021/07/05 05:26:07;;;;;;;;;1.00;1.00;;;;;-145.01;100.00;59511.53;5114491;27;46180;-72
2021/07/05 05:28:33;;;;;;;;;4.75;2.00;;;;;-145.01;100.00;59511.53;5104984;27;45409;-74
2021/07/05 05:30:58;;;;;;;;;2.00;1.00;;;;;-145.01;100.00;59511.53;5114713;27;45430;-73
2021/07/05 05:33:24;;;;;;;;;4.25;3.00;;;;;-145.01;100.00;59511.53;5114686;27;45607;-74
2021/07/05 05:35:50;;;;;;;;;4.00;2.25;;;;;-145.01;100.00;59511.53;5113965;27;45411;-73
2021/07/05 05:38:16;;;;;;;;;1.75;1.75;;;;;-145.01;100.00;59511.53;5113266;27;45428;-72
2021/07/05 05:40:41;;;;;;;;;4.67;1.67;;;;;-145.01;100.00;59511.53;5092504;27;45514;-72
2021/07/05 05:43:08;;;;;;;;;2.75;2.00;;;;;-145.01;100.00;59511.53;5101954;27;45327;-73
2021/07/05 05:45:36;;;;;;;;;3.00;3.00;;;;;-145.01;100.00;59511.53;5102834;27;46451;-73
2021/07/05 05:48:01;;;;;;;;;3.00;2.00;;;;;-145.01;100.00;59511.53;5103610;27;45401;-73
2021/07/05 05:50:27;;;;;;;;;2.33;2.33;;;;;-145.01;100.00;59511.53;5103743;27;45305;-74
2021/07/05 05:52:52;;;;;;;;;3.50;3.50;;;;;-145.01;100.00;59511.53;5110519;27;45468;-74
2021/07/05 05:55:18;;;;;;;;;5.00;4.00;;;;;-145.01;100.00;59511.53;5105342;27;46254;-74
2021/07/05 05:57:44;;;;;;;;;2.00;2.00;;;;;-145.01;100.00;59511.53;5103186;27;45352;-74
2021/07/05 06:00:16;;;;;;;;;2.00;2.00;;;;;-145.01;100.00;59511.53;5104347;27;45373;-74
2021/07/05 06:02:41;;;;;;;;;3.75;3.75;;;;;-145.01;100.00;59511.53;5108133;27;45403;-75
2021/07/05 06:05:08;;;;;;;;;6.25;6.00;;;;;-145.01;100.00;59511.53;5113978;27;46296;-74
2021/07/05 06:07:34;;;;;;;;;8.00;6.00;;;;;-145.01;100.00;59511.53;5113346;27;45291;-73
2021/07/05 06:09:59;;;;;;;;;1.00;1.00;;;;;-145.01;100.00;59511.53;5092119;27;45439;-73
2021/07/05 06:12:24;;;;;;;;;6.25;4.00;;;;;-145.01;100.00;59511.53;5106697;27;45723;-73
2021/07/05 06:14:50;;;;;;;;;2.00;2.00;;;;;-145.01;100.00;59511.53;5106481;27;45362;-73
2021/07/05 06:17:15;;;;;;;;;2.33;2.33;;;;;-145.01;100.00;59511.53;5104582;27;45409;-75
2021/07/05 06:19:41;;;;;;;;;3.33;1.67;;;;;-145.01;100.00;59511.53;5102952;27;46056;-75
2021/07/05 06:22:13;;;;;;;;;7.25;5.75;;;;;-145.01;100.00;59511.53;5103723;27;45441;-77
2021/07/05 06:24:39;;;;;;;;;3.00;3.00;;;;;-145.01;100.00;59511.53;5103625;27;46951;-77
2021/07/05 06:27:05;;;;;;;;;4.75;3.75;;;;;-145.01;100.00;59511.53;5102626;27;45508;-75
2021/07/05 06:29:30;;;;;;;;;4.50;4.50;;;;;-145.01;100.00;59511.53;5099363;27;45501;-75
2021/07/05 06:31:55;;;;;;;;;2.25;2.25;;;;;-145.01;100.00;59511.53;5104900;27;45475;-74
2021/07/05 06:34:21;;;;;;;;;3.00;3.00;;;;;-145.01;100.00;59511.53;5097322;27;46148;-75
2021/07/05 06:36:46;;;;;;;;;3.00;3.00;;;;;-145.01;100.00;59511.53;5110178;27;45468;-74
2021/07/05 06:39:11;;;;;;;;;2.00;2.00;;;;;-145.01;100.00;59511.53;5103809;27;45451;-73
2021/07/05 06:41:37;;;;;;;;;3.00;3.00;;;;;-145.01;100.00;59511.53;5112041;27;45400;-76
2021/07/05 06:44:02;;;;;;;;;6.00;5.00;;;;;-145.01;100.00;59511.53;5113925;27;49450;-78
2021/07/05 06:46:27;;;;;;;;;4.00;4.00;;;;;-145.01;100.00;59511.53;5111428;27;45351;-75
2021/07/05 06:48:53;;;;;;;;;7.50;7.50;;;;;-145.01;100.00;59511.53;5098831;27;45264;-75
2021/07/05 06:51:20;;;;;;;;;7.50;7.00;;;;;-145.01;100.00;59511.53;5114565;27;45670;-74
2021/07/05 06:53:45;;;;;;;;;5.67;5.67;;;;;-145.01;100.00;59511.53;5103548;27;46169;-71
2021/07/05 06:56:11;;;;;;;;;4.00;3.00;;;;;-145.01;100.00;59511.53;5108769;27;45384;-71
2021/07/05 06:58:36;;;;;;;;;4.00;4.00;;;;;-145.01;100.00;59511.53;5111483;27;45524;-72
2021/07/05 07:01:03;;;;;;;;;12.25;9.00;;;;;-145.01;100.00;59511.53;5090644;27;45380;-71
2021/07/05 07:03:29;;;;;;;;;15.75;14.25;;;;;-145.01;100.00;59511.53;5115946;27;45478;-71
2021/07/05 07:05:55;;;;;;;;;5.00;3.00;;;;;-145.01;100.00;59511.53;5113496;27;45325;-74
2021/07/05 07:08:21;;;;;;;;;3.00;2.00;;;;;-145.01;100.00;59511.53;5112649;27;45329;-73
2021/07/05 07:10:47;;;;;;;;;3.50;2.00;;;;;-145.01;100.00;59511.53;5101417;27;45545;-73
2021/07/05 07:13:12;;;;;;;;;7.00;5.00;;;;;-145.01;100.00;59511.53;5102985;27;46546;-72
2021/07/05 07:15:40;;;;;;;;;6.00;4.50;;;;;-145.01;100.00;59511.53;5107895;27;45397;-73
2021/07/05 07:20:31;;;;;;;;;2.25;2.25;;;;;-145.01;100.00;59511.53;5107098;27;45531;-75
2021/07/05 07:22:57;;;;;;;;;3.00;2.00;;;;;-145.01;100.00;59511.53;5110509;27;46850;-74
2021/07/05 07:25:22;;;;;;;;;8.00;6.75;;;;;-145.01;100.00;59511.53;5111100;27;46730;-74
2021/07/05 07:27:48;;;;;;;;;4.00;4.00;;;;;-145.01;100.00;59511.53;5109953;27;45345;-74
2021/07/05 07:30:14;;;;;;;;;2.00;2.00;;;;;-145.01;100.00;59511.53;5089720;27;45437;-75
2021/07/05 07:32:41;;;;;;;;;2.25;2.25;;;;;-145.01;100.00;59511.53;5109654;27;45596;-74
2021/07/05 07:35:07;;;;;;;;;3.50;3.50;;;;;-145.01;100.00;59511.53;5111095;27;45440;-74
2021/07/05 07:37:33;;;;;;;;;3.00;3.00;;;;;-145.01;100.00;59511.53;5105978;27;45413;-72
2021/07/05 07:40:23;;;;;;;;;3.75;3.75;;;;;-145.01;100.00;59511.53;5101448;27;45364;-73
2021/07/05 07:42:49;;;;;;;;;3.50;3.50;;;;;-145.01;100.00;59511.53;5107957;27;46121;-74
2021/07/05 07:45:15;;;;;;;;;3.75;3.75;;;;;-145.01;100.00;59511.53;5102911;27;45673;-73
2021/07/05 07:47:41;;;;;;;;;3.00;3.00;;;;;-145.01;100.00;59511.53;5113103;27;45485;-73
2021/07/05 07:50:08;;;;;;;;;8.00;7.25;;;;;-145.01;100.00;59511.53;5109795;27;45459;-76
2021/07/05 07:52:33;;;;;;;;;6.25;6.25;;;;;-145.01;100.00;59511.53;5102660;27;46367;-75
2021/07/05 07:55:00;;;;;;;;;4.00;3.00;;;;;-145.01;100.00;59511.53;5097901;27;45366;-74
2021/07/05 07:57:26;;;;;;;;;6.25;4.00;;;;;-145.01;100.00;59511.53;5094853;27;45348;-74
2021/07/05 07:59:51;;;;;;;;;3.75;3.75;;;;;-145.01;100.00;59511.53;5113364;27;45384;-73
2021/07/05 08:02:17;;;;;;;;;2.33;2.33;;;;;-145.01;100.00;59511.53;5107703;27;46029;-75
2021/07/05 08:04:42;;;;;;;;;4.50;4.00;;;;;-145.01;100.00;59511.53;5104691;27;45485;-73
2021/07/05 08:07:07;;;;;;;;;4.75;3.50;;;;;-145.01;100.00;59511.53;5112968;27;45407;-75
2021/07/05 08:09:34;;;;;;;;;6.75;6.25;;;;;-145.01;100.00;59511.53;5115266;27;45513;-74
2021/07/05 08:12:01;;;;;;;;;6.25;5.00;;;;;-145.01;100.00;59511.53;5107572;27;45513;-72
2021/07/05 08:14:27;;;;;;;;;3.75;3.75;;;;;-145.01;100.00;59511.53;5105197;27;45462;-73
2021/07/05 08:16:52;;;;;;;;;6.75;4.50;;;;;-145.01;100.00;59511.53;5105127;27;45315;-74
2021/07/05 08:19:19;;;;;;;;;8.25;7.00;;;;;-145.01;100.00;59511.53;5113949;27;48943;-73
2021/07/05 08:21:44;;;;;;;;;5.00;5.00;;;;;-145.01;100.00;59511.53;5109418;27;45532;-73
2021/07/05 08:24:10;;;;;;;;;4.50;4.50;;;;;-145.01;100.00;59511.53;5113951;27;45591;-75
2021/07/05 08:26:35;;;;;;;;;5.00;5.00;;;;;-145.01;100.00;59511.53;5091294;27;45847;-74
2021/07/05 08:29:01;;;;;;;;;9.75;8.75;;;;;-145.01;100.00;59511.53;5105270;27;45428;-74
2021/07/05 08:31:27;;;;;;;;;8.50;6.00;;;;;-145.01;100.00;59511.53;5112641;27;45462;-76
2021/07/05 08:33:52;;;;;;;;;6.25;5.00;;;;;-145.01;100.00;59511.53;5114462;27;46119;-73
2021/07/05 08:36:20;;;;;;;;;8.50;7.00;;;;;-145.01;100.00;59511.53;5108856;27;45235;-75
2021/07/05 08:38:45;;;;;;;;;6.25;6.00;;;;;-145.01;100.00;59511.53;5104993;27;45384;-75
2021/07/05 08:41:11;;;;;;;;;4.67;4.67;;;;;-145.01;100.00;59511.53;5101266;27;47004;-74
2021/07/05 08:43:41;;;;;;;;;8.50;8.50;;;;;-145.01;100.00;59511.53;5114227;27;46035;-74
2021/07/05 08:46:07;;;;;;;;;8.25;8.00;;;;;-145.01;100.00;59511.53;5106059;27;45423;-75
2021/07/05 08:48:36;;;;;;;;;5.25;5.25;;;;;-145.01;100.00;59511.53;5112668;27;45512;-75
2021/07/05 08:51:04;;;;;;;;;5.50;5.00;;;;;-145.01;100.00;59511.53;5114107;27;45425;-74
2021/07/05 08:53:30;;;;;;;;;5.50;5.50;;;;;-145.01;100.00;59511.53;5107964;27;45576;-74
2021/07/05 08:55:56;;;;;;;;;7.00;7.00;;;;;-145.01;100.00;59511.53;5105832;27;45808;-75
2021/07/05 08:58:22;;;;;;;;;5.50;5.50;;;;;-145.01;100.00;59511.53;5098924;27;45626;-74
2021/07/05 09:00:48;;;;;;;;;11.75;7.25;;;;;-145.01;100.00;59511.53;5100383;27;46170;-74
2021/07/05 09:03:14;;;;;;;;;6.00;6.00;;;;;-145.01;100.00;59511.53;5102355;27;45414;-75
2021/07/05 09:05:40;;;;;;;;;7.00;4.50;;;;;-145.01;100.00;59511.53;5107608;27;45421;-75
2021/07/05 09:08:08;;;;;;;;;8.00;7.00;;;;;-145.01;100.00;59511.53;5104887;27;45463;-74
2021/07/05 09:10:42;;;;;;;;;13.25;10.25;;;;;-145.01;100.00;59511.53;5102497;27;45479;-74
2021/07/05 09:13:10;;;;;;;;;10.75;8.75;;;;;-145.01;100.00;59511.53;5114240;27;45426;-74
2021/07/05 09:15:39;;;;;;;;;13.50;12.75;;;;;-145.01;100.00;59511.53;5105374;27;46375;-75
2021/07/05 09:18:33;;;;;;;;;9.75;9.75;;;;;-145.01;100.00;59511.53;5110594;27;45788;-74
2021/07/05 09:21:34;;;;;;;;;8.00;7.00;;;;;-145.01;100.00;59511.53;5108819;27;46243;-75
2021/07/05 09:24:05;;;;;;;;;3.67;3.67;;;;;-145.01;100.00;59511.53;5036650;28;45410;-73
2021/07/05 09:26:31;;;;;;;;;2.00;2.00;;;;;-145.01;100.00;59511.53;5037029;28;45476;-74
2021/07/05 09:28:58;;;;;;;;;3.33;3.00;;;;;-145.01;100.00;59511.53;5043234;28;45616;-76
2021/07/05 09:31:32;;;;;;;;;2.67;2.67;;;;;-145.01;100.00;59511.53;5033269;28;45685;-76
2021/07/05 09:33:59;;;;;;;;;2.00;2.00;;;;;-145.01;100.00;59511.53;5036926;28;45510;-75
2021/07/05 09:36:25;;;;;;;;;2.33;2.33;;;;;-145.01;100.00;59511.53;5037420;28;45603;-76
2021/07/05 09:38:52;;;;;;;;;6.00;6.00;;;;;-145.01;100.00;59511.53;5040404;28;45518;-74
2021/07/05 09:41:19;;;;;;;;;9.67;7.00;;;;;-145.01;100.00;59511.53;5045653;28;46531;-74
2021/07/05 09:43:49;;;;;;;;;6.00;4.67;;;;;-145.01;100.00;59511.53;5038322;28;45555;-75
2021/07/05 09:46:15;;;;;;;;;6.00;4.00;;;;;-145.01;100.00;59511.53;5049451;28;45644;-75
2021/07/05 09:48:46;;;;;;;;;5.00;4.00;;;;;-145.01;100.00;59511.53;5045765;28;45308;-74
2021/07/05 09:51:26;;;;;;;;;4.75;3.00;;;;;-145.01;100.00;59511.53;5037608;28;46435;-74
2021/07/05 09:53:53;;;;;;;;;2.00;2.00;;;;;-145.01;100.00;59511.53;5044956;28;45713;-74
2021/07/05 09:56:27;;;;;;;;;1.00;1.00;;;;;-145.01;100.00;59511.53;5046204;28;45630;-74
2021/07/05 09:59:04;;;;;;;;;1.33;1.33;;;;;-145.01;100.00;59511.53;5080968;27;45523;-73
2021/07/05 10:01:46;;;;;;;;;2.67;2.67;;;;;-145.01;100.00;59511.53;5105819;27;45440;-74
2021/07/05 10:04:23;;;;;;;;;1.00;1.00;;;;;-145.01;100.00;59511.53;5107652;27;45417;-74
2021/07/05 10:06:50;;;;;;;;;3.00;3.00;;;;;-145.01;100.00;59511.53;5093511;27;45505;-75
2021/07/05 10:09:29;;;;;;;;;5.33;4.00;;;;;-145.01;100.00;59511.53;5112582;27;45456;-76
2021/07/05 10:11:55;;;;;;;;;5.00;3.33;;;;;-145.01;100.00;59511.53;5104791;27;46478;-74
2021/07/05 10:14:21;;;;;;;;;2.33;2.33;;;;;-145.01;100.00;59511.53;5106955;27;45508;-75
2021/07/05 10:16:49;;;;;;;;;2.00;2.00;;;;;-145.01;100.00;59511.53;5109692;27;45480;-75
2021/07/05 10:19:15;;;;;;;;;3.00;3.00;;;;;-145.01;100.00;59511.53;5104770;27;45696;-74
2021/07/05 10:21:42;;;;;;;;;3.33;2.33;;;;;-145.01;100.00;59511.53;5105906;27;47152;-73
2021/07/05 10:24:09;;;;;;;;;1.00;1.00;;;;;-145.01;100.00;59511.53;5116582;27;45401;-74
2021/07/05 10:26:36;;;;;;;;;1.67;1.00;;;;;-145.01;100.00;59511.53;5108331;27;45855;-73
2021/07/05 10:29:04;;;;;;;;;2.33;1.67;;;;;-145.01;100.00;59511.53;5107936;27;45563;-74
2021/07/05 10:31:31;;;;;;;;;1.00;1.00;;;;;-145.01;100.00;59511.53;5113948;27;45555;-77
2021/07/05 10:33:59;;;;;;;;;2.00;2.00;;;;;-145.01;100.00;59511.53;5113368;27;45390;-74
2021/07/05 10:36:27;;;;;;;;;3.67;3.67;;;;;-145.01;100.00;59511.53;5107382;27;45581;-73
2021/07/05 10:38:55;;;;;;;;;2.67;2.67;;;;;-145.01;100.00;59511.53;5111173;27;45391;-75
2021/07/05 10:41:22;;;;;;;;;1.00;1.00;;;;;-145.01;100.00;59511.53;5112779;27;45479;-74
2021/07/05 10:43:54;;;;;;;;;3.33;1.00;;;;;-145.01;100.00;59511.53;5111863;27;45466;-75
2021/07/05 10:46:39;;;;;;;;;1.00;1.00;;;;;-145.01;100.00;59511.53;5110865;27;45429;-74
2021/07/05 10:49:06;;;;;;;;;2.67;2.67;;;;;-145.01;100.00;59511.53;5104382;27;45229;-75
2021/07/05 10:51:43;;;;;;;;;1.00;1.00;;;;;-145.01;100.00;59511.53;5098782;27;47277;-75
2021/07/05 10:54:09;;;;;;;;;3.00;3.00;;;;;-145.01;100.00;59511.53;5106626;27;45382;-74
2021/07/05 10:56:42;;;;;;;;;1.00;1.00;;;;;-145.01;100.00;59511.53;5114123;27;45629;-75
2021/07/05 10:59:10;;;;;;;;;2.67;1.67;;;;;-145.01;100.00;59511.53;5106084;27;45517;-75
2021/07/05 11:01:41;;;;;;;;;2.00;2.00;;;;;-145.01;100.00;59511.53;5114629;27;46394;-75
2021/07/05 11:04:37;;;;;;;;;4.67;4.67;;;;;-145.01;100.00;59511.53;5114193;27;45471;-77
2021/07/05 11:07:15;;;;;;;;;3.00;3.00;;;;;-145.01;100.00;59511.53;5102444;27;45431;-74
2021/07/05 11:09:54;;;;;;;;;3.00;3.00;;;;;-145.01;100.00;59511.53;5101588;27;45391;-76
2021/07/05 11:12:31;;;;;;;;;1.67;1.33;;;;;-145.01;100.00;59511.53;5103241;27;45607;-74
2021/07/05 11:14:57;;;;;;;;;2.00;2.00;;;;;-145.01;100.00;59511.53;5104205;27;45431;-73
2021/07/05 11:17:25;;;;;;;;;5.00;4.00;;;;;-145.01;100.00;59511.53;5110512;27;45846;-74
2021/07/05 11:19:55;;;;;;;;;5.67;5.00;;;;;-145.01;100.00;59511.53;5108996;27;45474;-74